Time;durP1;ratioP1;P1;durP2;ratioP2;P2;SDS_P1;SDS_P2;PMS_P1;PMS_P2;Temp;Humidity;BMP_temperature;BMP_pressure;BME280_temperature;BME280_humidity;BME280_pressure;Samples;Min_cycle;Max_cycle;Signal;HPM_P1;HPM_P2
2021/09/02 00:02:19;;;;;;;8.47;3.63;;;16.60;99.90;;;;;;5008883;28;20233;-91
2021/09/02 00:04:45;;;;;;;8.20;3.83;;;16.70;99.90;;;;;;5018493;28;20688;-91
2021/09/02 00:07:11;;;;;;;9.63;4.13;;;16.70;99.90;;;;;;5003686;28;20194;-91
2021/09/02 00:09:37;;;;;;;15.27;4.87;;;16.70;99.90;;;;;;5008105;28;20619;-91
2021/09/02 00:12:03;;;;;;;12.77;5.30;;;16.60;99.90;;;;;;5015340;28;20268;-90
2021/09/02 00:14:29;;;;;;;14.57;6.43;;;16.60;99.90;;;;;;5009148;28;20716;-91
2021/09/02 00:16:55;;;;;;;9.87;4.20;;;16.60;99.90;;;;;;5008237;28;20230;-91
2021/09/02 00:19:21;;;;;;;15.07;5.43;;;16.60;99.90;;;;;;5008782;28;20234;-91
2021/09/02 00:21:46;;;;;;;10.13;4.37;;;16.60;99.90;;;;;;5009025;28;20191;-90
2021/09/02 00:24:13;;;;;;;14.27;4.77;;;16.60;99.90;;;;;;5008975;28;20204;-90
2021/09/02 00:26:42;;;;;;;12.07;4.70;;;16.70;99.90;;;;;;5001014;28;20215;-90
2021/09/02 00:29:07;;;;;;;7.60;4.70;;;16.70;99.90;;;;;;5017086;28;20298;-91
2021/09/02 00:31:33;;;;;;;13.43;4.60;;;16.70;99.90;;;;;;5008655;28;20274;-91
2021/09/02 00:33:59;;;;;;;9.87;4.80;;;16.70;99.90;;;;;;5001243;28;20217;-91
2021/09/02 00:36:25;;;;;;;16.83;5.00;;;16.70;99.90;;;;;;5009253;28;20284;-91
2021/09/02 00:38:50;;;;;;;13.97;6.03;;;16.70;99.90;;;;;;5018399;28;20213;-91
2021/09/02 00:41:16;;;;;;;13.13;6.20;;;16.70;99.90;;;;;;5015957;28;20219;-91
2021/09/02 00:43:43;;;;;;;14.50;6.20;;;16.60;99.90;;;;;;5018100;28;20218;-91
2021/09/02 00:46:17;;;;;;;11.93;5.83;;;16.60;99.90;;;;;;5009266;28;20202;-91
2021/09/02 00:48:48;;;;;;;11.67;6.33;;;16.60;99.90;;;;;;5008624;28;20703;-92
2021/09/02 00:51:15;;;;;;;14.17;7.33;;;16.60;99.90;;;;;;5008286;28;20230;-91
2021/09/02 00:53:43;;;;;;;14.23;5.63;;;16.60;99.90;;;;;;5015072;28;20301;-91
2021/09/02 00:56:09;;;;;;;12.70;6.43;;;16.60;99.90;;;;;;5007737;28;20690;-91
2021/09/02 00:58:35;;;;;;;13.77;7.77;;;16.60;99.90;;;;;;5008487;28;20193;-91
2021/09/02 01:01:01;;;;;;;16.23;6.73;;;16.60;99.90;;;;;;5010485;28;20221;-90
2021/09/02 01:03:27;;;;;;;18.30;7.53;;;16.60;99.90;;;;;;5012590;28;20281;-91
2021/09/02 01:05:54;;;;;;;17.90;7.80;;;16.60;99.90;;;;;;4996795;28;21381;-91
2021/09/02 01:08:20;;;;;;;12.10;6.10;;;16.50;99.90;;;;;;5003170;28;20309;-91
2021/09/02 01:10:49;;;;;;;18.10;7.43;;;16.50;99.90;;;;;;5012460;28;20301;-91
2021/09/02 01:13:20;;;;;;;11.17;7.43;;;16.50;99.90;;;;;;5003636;28;20214;-91
2021/09/02 01:15:46;;;;;;;12.27;6.27;;;16.50;99.90;;;;;;5021215;28;20226;-91
2021/09/02 01:18:12;;;;;;;19.90;7.43;;;16.50;99.90;;;;;;5012761;28;21240;-91
2021/09/02 01:20:38;;;;;;;13.27;6.47;;;16.40;99.90;;;;;;5012508;28;20226;-91
2021/09/02 01:23:05;;;;;;;11.17;5.80;;;16.40;99.90;;;;;;5021319;28;20302;-90
2021/09/02 01:25:42;;;;;;;9.20;6.53;;;16.40;99.90;;;;;;5019123;28;20233;-91
2021/09/02 01:28:11;;;;;;;10.77;5.70;;;16.40;99.90;;;;;;5029350;28;20206;-90
2021/09/02 01:30:38;;;;;;;16.37;6.43;;;16.40;99.90;;;;;;5020943;28;20252;-90
2021/09/02 01:33:06;;;;;;;12.70;6.20;;;16.40;99.90;;;;;;5035984;28;20230;-90
2021/09/02 01:35:32;;;;;;;13.80;6.03;;;16.30;99.90;;;;;;5019232;28;20604;-90
2021/09/02 01:38:04;;;;;;;10.60;5.90;;;16.30;99.90;;;;;;5013221;28;20296;-90
2021/09/02 01:40:47;;;;;;;16.03;6.17;;;16.30;99.90;;;;;;5019378;28;20195;-91
2021/09/02 01:43:16;;;;;;;14.07;6.63;;;16.30;99.90;;;;;;5028709;28;20606;-90
2021/09/02 01:45:42;;;;;;;17.37;6.07;;;16.30;99.90;;;;;;5011546;28;20281;-90
2021/09/02 01:48:08;;;;;;;12.80;6.00;;;16.30;99.90;;;;;;5018883;28;20226;-91
2021/09/02 01:50:37;;;;;;;13.50;6.07;;;16.30;99.90;;;;;;5012805;28;20210;-91
2021/09/02 01:53:06;;;;;;;11.03;5.43;;;16.30;99.90;;;;;;5019126;28;20272;-91
2021/09/02 01:55:33;;;;;;;10.57;4.87;;;16.30;99.90;;;;;;5019985;28;20191;-90
2021/09/02 01:57:59;;;;;;;8.23;5.20;;;16.30;99.90;;;;;;5020142;28;20694;-91
2021/09/02 02:00:24;;;;;;;13.03;5.90;;;16.30;99.90;;;;;;5019349;28;20206;-91
2021/09/02 02:02:51;;;;;;;6.43;3.83;;;16.30;99.90;;;;;;5019164;28;20289;-90
2021/09/02 02:05:17;;;;;;;12.47;5.20;;;16.40;99.90;;;;;;5011132;28;20280;-91
2021/09/02 02:07:43;;;;;;;7.00;3.87;;;16.30;99.90;;;;;;5021538;28;20226;-90
2021/09/02 02:10:16;;;;;;;6.40;4.07;;;16.30;99.90;;;;;;5022975;28;20191;-90
2021/09/02 02:12:41;;;;;;;5.40;3.27;;;16.40;99.90;;;;;;5019905;28;20257;-90
2021/09/02 02:15:08;;;;;;;9.97;4.23;;;16.30;99.90;;;;;;5009619;28;20231;-91
2021/09/02 02:17:34;;;;;;;5.47;3.27;;;16.30;99.90;;;;;;5011609;28;20235;-90
2021/09/02 02:20:00;;;;;;;5.73;2.80;;;16.30;99.90;;;;;;5021794;28;20225;-90
2021/09/02 02:22:26;;;;;;;4.70;3.00;;;16.20;99.90;;;;;;5009864;28;20563;-90
2021/09/02 02:24:52;;;;;;;4.93;2.60;;;16.20;99.90;;;;;;5019807;28;20655;-91
2021/09/02 02:27:17;;;;;;;3.37;2.10;;;16.20;99.90;;;;;;5010166;28;20366;-91
2021/09/02 02:29:43;;;;;;;4.37;3.10;;;16.20;99.90;;;;;;5018469;28;20215;-91
2021/09/02 02:32:09;;;;;;;5.00;2.47;;;16.10;99.90;;;;;;5010627;28;20206;-90
2021/09/02 02:34:35;;;;;;;7.37;3.23;;;16.10;99.90;;;;;;5019969;28;20640;-90
2021/09/02 02:37:01;;;;;;;8.67;2.43;;;16.10;99.90;;;;;;5011304;28;20222;-91
2021/09/02 02:39:27;;;;;;;6.17;3.00;;;16.00;99.90;;;;;;5019837;28;20234;-90
2021/09/02 02:41:52;;;;;;;9.43;2.83;;;16.00;99.90;;;;;;5019158;28;20210;-91
2021/09/02 02:44:18;;;;;;;7.17;2.53;;;16.00;99.90;;;;;;5010562;28;20314;-91
2021/09/02 02:46:44;;;;;;;11.87;2.53;;;16.00;99.90;;;;;;5010099;28;20269;-91
2021/09/02 02:49:09;;;;;;;7.43;2.60;;;16.00;99.90;;;;;;5002679;28;20188;-92
2021/09/02 02:51:35;;;;;;;10.67;2.63;;;16.00;99.90;;;;;;5009817;28;20222;-91
2021/09/02 02:54:02;;;;;;;4.17;1.93;;;16.00;99.90;;;;;;5010431;28;20687;-91
2021/09/02 02:56:28;;;;;;;4.93;1.77;;;16.00;99.90;;;;;;5009581;28;20223;-91
2021/09/02 02:58:54;;;;;;;5.50;2.50;;;16.00;99.90;;;;;;5009821;28;20360;-91
2021/09/02 03:01:20;;;;;;;4.90;2.63;;;16.00;99.90;;;;;;4994846;28;20226;-90
2021/09/02 03:03:46;;;;;;;4.50;2.33;;;16.00;99.90;;;;;;5019360;28;20183;-90
2021/09/02 03:06:14;;;;;;;4.23;2.03;;;15.90;99.90;;;;;;5011195;28;20737;-90
2021/09/02 03:08:40;;;;;;;7.63;2.43;;;16.00;99.90;;;;;;5017477;28;20239;-90
2021/09/02 03:11:07;;;;;;;8.70;2.93;;;16.00;99.90;;;;;;5009723;28;20250;-90
2021/09/02 03:13:32;;;;;;;5.23;3.23;;;16.00;99.90;;;;;;5014556;28;20175;-90
2021/09/02 03:15:58;;;;;;;4.00;2.03;;;16.00;99.90;;;;;;5010080;28;20186;-90
2021/09/02 03:18:24;;;;;;;5.00;2.17;;;16.00;99.90;;;;;;5008683;28;20703;-90
2021/09/02 03:20:50;;;;;;;3.97;3.57;;;16.00;99.90;;;;;;5009174;28;20207;-91
2021/09/02 03:23:16;;;;;;;3.20;2.30;;;16.00;99.90;;;;;;5009754;28;20206;-90
2021/09/02 03:25:41;;;;;;;5.27;2.27;;;16.00;99.90;;;;;;5008628;28;20215;-90
2021/09/02 03:28:08;;;;;;;3.83;1.67;;;16.10;99.90;;;;;;5009990;28;20233;-90
2021/09/02 03:30:33;;;;;;;5.57;2.53;;;16.10;99.90;;;;;;5021979;28;20217;-90
2021/09/02 03:32:59;;;;;;;4.20;2.77;;;16.10;99.90;;;;;;5008819;28;20202;-91
2021/09/02 03:35:25;;;;;;;9.50;2.23;;;16.10;99.90;;;;;;5009078;28;20215;-91
2021/09/02 03:37:51;;;;;;;4.40;1.93;;;16.10;99.90;;;;;;5008616;28;21022;-91
2021/09/02 03:40:16;;;;;;;4.40;2.20;;;16.10;99.90;;;;;;5008807;28;20187;-91
2021/09/02 03:42:42;;;;;;;10.47;2.80;;;16.20;99.90;;;;;;5017904;28;20690;-91
2021/09/02 03:45:09;;;;;;;4.93;2.63;;;16.20;99.90;;;;;;5008968;28;20208;-91
2021/09/02 03:47:35;;;;;;;3.53;2.27;;;16.10;99.90;;;;;;5017400;28;20238;-91
2021/09/02 03:50:02;;;;;;;5.53;2.33;;;16.10;99.90;;;;;;5004089;28;20966;-91
2021/09/02 03:52:28;;;;;;;3.37;1.87;;;16.10;99.90;;;;;;5018855;28;20218;-90
2021/09/02 03:54:54;;;;;;;6.50;2.97;;;16.10;99.90;;;;;;4999723;28;20238;-90
2021/09/02 03:57:19;;;;;;;3.33;1.80;;;16.10;99.90;;;;;;5010613;28;21222;-91
2021/09/02 03:59:45;;;;;;;9.30;2.77;;;16.10;99.90;;;;;;5008301;28;20212;-91
2021/09/02 04:02:11;;;;;;;5.40;2.20;;;16.10;99.90;;;;;;5010340;28;20218;-91
2021/09/02 04:04:37;;;;;;;6.40;2.57;;;15.90;99.90;;;;;;5009522;28;20191;-91
2021/09/02 04:07:05;;;;;;;8.77;3.07;;;15.90;99.90;;;;;;5020980;28;20194;-91
2021/09/02 04:09:31;;;;;;;8.70;2.90;;;15.90;99.90;;;;;;5009857;28;20926;-91
2021/09/02 04:11:57;;;;;;;8.07;2.73;;;15.90;99.90;;;;;;5010044;28;20226;-90
2021/09/02 04:14:23;;;;;;;7.87;3.47;;;16.00;99.90;;;;;;5009649;28;20589;-90
2021/09/02 04:16:49;;;;;;;7.13;2.63;;;16.00;99.90;;;;;;5010124;28;20242;-91
2021/09/02 04:19:14;;;;;;;6.33;2.83;;;16.00;99.90;;;;;;5008568;28;20951;-91
2021/09/02 04:21:40;;;;;;;9.53;4.67;;;16.10;99.90;;;;;;5008978;28;20210;-91
2021/09/02 04:24:06;;;;;;;4.00;2.40;;;16.00;99.90;;;;;;5009233;28;20226;-91
2021/09/02 04:26:32;;;;;;;9.70;2.47;;;16.00;99.90;;;;;;5017915;28;20218;-91
2021/09/02 04:28:57;;;;;;;5.23;3.23;;;16.00;99.90;;;;;;5008306;28;20461;-91
2021/09/02 04:31:23;;;;;;;14.60;3.17;;;15.90;99.90;;;;;;5018001;28;20190;-90
2021/09/02 04:33:49;;;;;;;9.33;3.63;;;16.00;99.90;;;;;;5033088;28;20541;-91
2021/09/02 04:36:14;;;;;;;8.97;3.33;;;15.90;99.90;;;;;;5009065;28;20222;-91
2021/09/02 04:38:40;;;;;;;4.83;2.47;;;16.00;99.90;;;;;;5008872;28;20221;-91
2021/09/02 04:41:06;;;;;;;7.17;2.93;;;16.00;99.90;;;;;;5019274;28;20265;-91
2021/09/02 04:43:32;;;;;;;9.63;2.83;;;16.10;99.90;;;;;;5008714;28;20179;-91
2021/09/02 04:45:58;;;;;;;6.27;3.17;;;16.10;99.90;;;;;;5008724;28;20561;-91
2021/09/02 04:48:24;;;;;;;7.13;3.17;;;16.10;99.90;;;;;;4991885;28;20222;-91
2021/09/02 04:50:51;;;;;;;5.83;2.67;;;16.00;99.90;;;;;;5009302;28;20218;-91
2021/09/02 04:53:18;;;;;;;7.23;2.97;;;15.90;99.90;;;;;;5018732;28;20668;-91
2021/09/02 04:55:44;;;;;;;6.80;3.10;;;16.00;99.90;;;;;;5007586;28;20247;-91
2021/09/02 04:58:11;;;;;;;6.93;2.70;;;16.00;99.90;;;;;;5015399;28;20251;-91
2021/09/02 05:00:38;;;;;;;10.03;3.60;;;16.00;99.90;;;;;;5015346;28;20219;-91
2021/09/02 05:03:05;;;;;;;6.57;3.10;;;16.00;99.90;;;;;;5008878;28;20200;-91
2021/09/02 05:05:31;;;;;;;9.23;2.43;;;16.10;99.90;;;;;;5014848;28;20226;-91
2021/09/02 05:07:57;;;;;;;7.33;2.93;;;16.10;99.90;;;;;;5009601;28;20330;-91
2021/09/02 05:10:23;;;;;;;6.70;3.40;;;16.10;99.90;;;;;;5009535;28;20190;-90
2021/09/02 05:12:50;;;;;;;4.97;2.73;;;16.10;99.90;;;;;;5010348;28;20215;-91
2021/09/02 05:15:17;;;;;;;10.30;3.13;;;16.20;99.90;;;;;;5019661;28;20906;-91
2021/09/02 05:17:44;;;;;;;8.43;3.63;;;16.20;99.90;;;;;;5008749;28;20302;-91
2021/09/02 05:20:11;;;;;;;4.77;2.17;;;16.20;99.90;;;;;;5010100;28;20215;-91
2021/09/02 05:22:36;;;;;;;8.33;3.40;;;16.20;99.90;;;;;;5015855;28;20194;-91
2021/09/02 05:25:03;;;;;;;4.87;2.33;;;16.30;99.90;;;;;;5010376;28;20214;-91
2021/09/02 05:27:28;;;;;;;5.07;2.63;;;16.30;99.90;;;;;;5007500;28;20223;-90
2021/09/02 05:29:54;;;;;;;9.03;2.77;;;16.10;99.90;;;;;;5008705;28;20782;-91
2021/09/02 05:32:20;;;;;;;5.73;2.57;;;16.10;99.90;;;;;;5007863;28;20215;-90
2021/09/02 05:34:46;;;;;;;8.30;3.73;;;16.10;99.90;;;;;;5017865;28;20364;-90
2021/09/02 05:37:11;;;;;;;6.23;2.63;;;16.20;99.90;;;;;;5015293;28;20222;-91
2021/09/02 05:39:37;;;;;;;10.67;4.77;;;16.20;99.90;;;;;;5007646;28;20220;-90
2021/09/02 05:42:03;;;;;;;5.03;3.03;;;16.20;99.90;;;;;;5007335;28;20219;-90
2021/09/02 05:44:30;;;;;;;5.70;2.97;;;16.20;99.90;;;;;;5007681;28;20207;-87
2021/09/02 05:46:56;;;;;;;13.73;3.27;;;16.30;99.90;;;;;;5017989;28;20227;-88
2021/09/02 05:49:22;;;;;;;7.97;2.83;;;16.40;99.90;;;;;;5017480;28;20194;-90
2021/09/02 05:51:49;;;;;;;8.10;3.10;;;16.40;99.90;;;;;;5021422;28;20195;-90
2021/09/02 05:54:15;;;;;;;5.20;3.23;;;16.40;99.90;;;;;;5011635;28;21074;-89
2021/09/02 05:56:40;;;;;;;9.40;3.37;;;16.30;99.90;;;;;;5019658;28;20372;-88
2021/09/02 05:59:06;;;;;;;4.33;2.47;;;16.40;99.90;;;;;;5018071;28;20218;-87
2021/09/02 06:01:32;;;;;;;9.73;2.90;;;16.50;99.90;;;;;;5019397;28;20182;-90
2021/09/02 06:03:58;;;;;;;6.27;3.20;;;16.50;99.90;;;;;;5011587;28;20194;-89
2021/09/02 06:06:24;;;;;;;4.07;2.60;;;16.50;99.90;;;;;;5010218;28;20227;-88
2021/09/02 06:08:49;;;;;;;5.60;3.10;;;16.50;99.90;;;;;;5018154;28;20305;-88
2021/09/02 06:11:15;;;;;;;5.10;2.67;;;16.50;99.90;;;;;;5018309;28;20219;-88
2021/09/02 06:13:41;;;;;;;3.13;2.20;;;16.50;99.90;;;;;;5010625;28;20222;-87
2021/09/02 06:16:06;;;;;;;4.07;2.50;;;16.50;99.90;;;;;;4994086;28;20206;-87
2021/09/02 06:18:32;;;;;;;4.37;2.83;;;16.60;99.90;;;;;;5009379;28;20223;-86
2021/09/02 06:20:58;;;;;;;7.50;2.57;;;16.60;99.90;;;;;;5017816;28;20222;-86
2021/09/02 06:23:24;;;;;;;3.70;2.87;;;16.50;99.90;;;;;;5027930;28;20234;-88
2021/09/02 06:25:50;;;;;;;4.47;2.30;;;16.50;99.90;;;;;;5018210;28;20219;-86
2021/09/02 06:28:15;;;;;;;4.63;2.00;;;16.40;99.90;;;;;;5010896;28;20562;-88
2021/09/02 06:30:41;;;;;;;5.93;3.30;;;16.50;99.90;;;;;;5011057;28;20228;-88
2021/09/02 06:33:07;;;;;;;5.87;3.23;;;16.60;99.90;;;;;;5011822;28;20215;-89
2021/09/02 06:35:33;;;;;;;4.60;2.90;;;16.60;99.90;;;;;;5010422;28;20765;-86
2021/09/02 06:37:59;;;;;;;9.53;2.73;;;16.70;99.90;;;;;;5009999;28;20288;-90
2021/09/02 06:40:25;;;;;;;6.93;3.10;;;16.70;99.90;;;;;;5003603;28;20198;-88
2021/09/02 06:42:50;;;;;;;5.23;3.00;;;16.70;99.90;;;;;;5018874;28;20198;-90
2021/09/02 06:45:17;;;;;;;7.57;2.87;;;16.70;99.90;;;;;;5022014;28;20226;-89
2021/09/02 06:47:44;;;;;;;7.03;2.70;;;16.80;99.90;;;;;;5018220;28;20234;-89
2021/09/02 06:50:11;;;;;;;7.43;2.50;;;16.90;99.90;;;;;;5015952;28;20218;-89
2021/09/02 06:52:39;;;;;;;8.23;2.80;;;16.80;99.90;;;;;;5009382;28;20192;-88
2021/09/02 06:55:07;;;;;;;6.63;2.83;;;16.70;99.90;;;;;;5036392;28;20202;-89
2021/09/02 06:57:33;;;;;;;6.17;2.70;;;16.80;99.90;;;;;;5017379;28;20714;-88
2021/09/02 06:59:59;;;;;;;9.00;3.07;;;16.90;99.90;;;;;;5007840;28;20247;-89
2021/09/02 07:02:25;;;;;;;3.57;2.13;;;16.80;99.90;;;;;;5010040;28;20273;-88
2021/09/02 07:04:51;;;;;;;8.13;3.33;;;16.90;99.90;;;;;;5009231;28;20211;-88
2021/09/02 07:07:18;;;;;;;6.33;3.07;;;17.00;99.90;;;;;;5022367;28;20183;-88
2021/09/02 07:09:44;;;;;;;4.03;2.90;;;16.90;99.90;;;;;;5017703;28;20305;-89
2021/09/02 07:12:10;;;;;;;6.47;2.90;;;16.90;99.90;;;;;;5011555;28;20866;-89
2021/09/02 07:14:35;;;;;;;15.33;3.67;;;17.00;99.90;;;;;;5011001;28;20226;-89
2021/09/02 07:17:01;;;;;;;8.20;2.33;;;17.00;99.90;;;;;;5010870;28;20222;-88
2021/09/02 07:19:27;;;;;;;6.97;2.60;;;17.00;99.90;;;;;;5010435;28;20234;-88
2021/09/02 07:21:53;;;;;;;7.43;2.97;;;16.90;99.90;;;;;;5009519;28;20272;-88
2021/09/02 07:24:19;;;;;;;8.53;3.20;;;17.00;99.90;;;;;;5001112;28;20324;-89
2021/09/02 07:26:45;;;;;;;4.00;2.27;;;17.00;99.90;;;;;;5016065;28;20559;-89
2021/09/02 07:29:11;;;;;;;12.00;2.90;;;17.10;99.90;;;;;;5009465;28;20230;-90
2021/09/02 07:31:39;;;;;;;8.37;3.20;;;17.20;99.90;;;;;;5001045;28;20192;-90
2021/09/02 07:34:05;;;;;;;6.53;2.97;;;17.30;99.90;;;;;;5020529;28;20631;-90
2021/09/02 07:36:31;;;;;;;8.17;2.83;;;17.40;99.90;;;;;;5016006;28;20251;-90
2021/09/02 07:38:57;;;;;;;9.40;2.80;;;17.50;99.90;;;;;;5009064;28;20230;-89
2021/09/02 07:41:23;;;;;;;10.50;2.80;;;17.50;99.90;;;;;;5010770;28;20309;-90
2021/09/02 07:43:49;;;;;;;5.90;2.70;;;17.50;99.90;;;;;;5016036;28;20350;-91
2021/09/02 07:46:15;;;;;;;8.53;2.50;;;17.40;99.90;;;;;;5005847;28;20283;-91
2021/09/02 07:48:46;;;;;;;7.90;2.63;;;17.40;99.90;;;;;;5009132;28;20257;-91
2021/09/02 07:51:13;;;;;;;6.50;2.83;;;17.50;99.90;;;;;;5019803;28;20718;-91
2021/09/02 07:53:39;;;;;;;6.87;3.33;;;17.60;99.90;;;;;;5011329;28;20283;-91
2021/09/02 07:56:05;;;;;;;8.93;2.70;;;17.70;99.90;;;;;;5022135;28;20317;-90
2021/09/02 07:58:30;;;;;;;5.33;3.27;;;17.80;99.90;;;;;;5008622;28;20254;-91
2021/09/02 08:00:56;;;;;;;7.50;2.30;;;17.80;99.90;;;;;;5007843;28;20191;-90
2021/09/02 08:03:22;;;;;;;8.87;2.53;;;17.80;99.90;;;;;;5006836;28;20616;-91
2021/09/02 08:05:48;;;;;;;7.23;3.10;;;17.60;99.90;;;;;;5005925;28;20229;-91
2021/09/02 08:08:16;;;;;;;11.20;3.50;;;17.40;99.90;;;;;;4999569;28;20251;-90
2021/09/02 08:10:44;;;;;;;5.30;2.30;;;17.30;99.90;;;;;;5006916;28;20226;-90
2021/09/02 08:13:10;;;;;;;12.30;4.20;;;17.20;99.90;;;;;;5014610;28;20183;-91
2021/09/02 08:15:36;;;;;;;7.13;3.03;;;17.30;99.90;;;;;;5030761;28;20858;-91
2021/09/02 08:18:05;;;;;;;5.07;3.20;;;17.30;99.90;;;;;;5006660;28;20235;-92
2021/09/02 08:20:32;;;;;;;7.10;2.80;;;17.40;99.90;;;;;;5017961;28;20218;-91
2021/09/02 08:22:58;;;;;;;8.33;2.53;;;17.50;99.90;;;;;;5006731;28;20226;-90
2021/09/02 08:25:25;;;;;;;4.17;2.33;;;17.60;99.90;;;;;;5002544;28;20199;-90
2021/09/02 08:27:51;;;;;;;4.90;2.67;;;17.50;99.90;;;;;;5000852;28;20179;-92
2021/09/02 08:30:20;;;;;;;9.13;3.30;;;17.50;99.90;;;;;;4990101;28;20758;-90
2021/09/02 08:32:47;;;;;;;10.27;3.37;;;17.60;99.90;;;;;;5014473;28;20302;-91
2021/09/02 08:35:26;;;;;;;4.53;2.97;;;17.70;99.90;;;;;;5015604;28;20210;-92
2021/09/02 08:37:53;;;;;;;8.50;3.33;;;17.90;99.90;;;;;;5014775;28;20589;-91
2021/09/02 08:40:23;;;;;;;5.87;3.37;;;17.80;99.90;;;;;;5017970;28;20194;-91
2021/09/02 08:42:50;;;;;;;5.77;3.27;;;17.70;99.90;;;;;;5015182;28;20215;-91
2021/09/02 08:45:16;;;;;;;5.13;3.07;;;17.90;99.90;;;;;;5007461;28;20687;-91
2021/09/02 08:47:46;;;;;;;10.30;3.93;;;18.00;99.90;;;;;;5015134;28;20218;-91
2021/09/02 08:50:13;;;;;;;7.27;3.17;;;18.20;99.90;;;;;;5016330;28;20222;-90
2021/09/02 08:52:38;;;;;;;7.80;3.20;;;18.10;99.90;;;;;;5013748;28;20203;-91
2021/09/02 08:55:05;;;;;;;6.57;3.17;;;18.40;99.90;;;;;;5009686;28;20226;-89
2021/09/02 08:57:30;;;;;;;4.47;3.07;;;18.60;99.90;;;;;;5008498;28;20706;-91
2021/09/02 08:59:57;;;;;;;6.50;2.67;;;18.30;99.90;;;;;;5009056;28;20219;-90
2021/09/02 09:02:29;;;;;;;5.43;2.53;;;18.40;99.90;;;;;;5008234;28;20234;-91
2021/09/02 09:05:07;;;;;;;8.33;2.47;;;18.50;99.90;;;;;;4999346;28;20207;-91
2021/09/02 09:07:35;;;;;;;5.53;2.47;;;18.70;99.90;;;;;;5018922;28;20205;-91
2021/09/02 09:10:03;;;;;;;5.93;2.40;;;18.80;99.90;;;;;;5017834;28;20206;-90
2021/09/02 09:12:46;;;;;;;4.90;3.13;;;18.70;99.90;;;;;;5033248;28;20679;-94
2021/09/02 09:15:20;;;;;;;9.80;2.70;;;18.70;99.90;;;;;;5017472;28;20225;-92
2021/09/02 09:17:48;;;;;;;4.37;2.43;;;18.70;99.90;;;;;;5008591;28;20308;-91
2021/09/02 09:20:17;;;;;;;6.53;3.00;;;18.70;99.90;;;;;;5032916;28;20434;-90
2021/09/02 09:22:48;;;;;;;6.53;2.90;;;18.90;99.90;;;;;;5020563;28;20222;-90
2021/09/02 09:25:14;;;;;;;5.10;3.13;;;19.30;99.90;;;;;;5020284;28;20236;-91
2021/09/02 09:27:53;;;;;;;7.53;3.37;;;19.50;99.90;;;;;;5020078;28;20290;-90
2021/09/02 09:30:21;;;;;;;5.00;2.17;;;19.90;99.90;;;;;;5018431;28;20275;-90
2021/09/02 09:32:59;;;;;;;12.93;3.53;;;19.80;99.90;;;;;;5020549;28;20299;-91
2021/09/02 09:35:33;;;;;;;7.90;2.93;;;19.70;99.90;;;;;;5020249;28;20306;-91
2021/09/02 09:38:16;;;;;;;5.77;3.63;;;19.90;99.90;;;;;;5021763;28;20229;-92
2021/09/02 09:40:47;;;;;;;6.37;2.70;;;20.10;99.90;;;;;;5021130;28;20687;-90
2021/09/02 09:43:15;;;;;;;5.10;2.87;;;20.30;99.90;;;;;;5022475;28;20244;-91
2021/09/02 09:45:49;;;;;;;4.50;3.00;;;20.40;99.90;;;;;;5018026;28;20234;-90
2021/09/02 09:48:33;;;;;;;4.23;2.53;;;20.80;99.90;;;;;;5017815;28;20284;-91
2021/09/02 09:51:20;;;;;;;7.27;3.17;;;21.10;99.90;;;;;;5027083;28;20229;-92
2021/09/02 09:53:48;;;;;;;9.00;3.50;;;21.00;99.90;;;;;;5036296;28;20215;-90
2021/09/02 09:56:19;;;;;;;4.67;2.73;;;21.00;99.90;;;;;;5019297;28;20298;-90
2021/09/02 09:58:46;;;;;;;4.97;2.87;;;21.10;99.90;;;;;;5021212;28;20797;-92
2021/09/02 10:01:13;;;;;;;5.30;3.13;;;21.30;99.90;;;;;;5013465;28;20530;-91
2021/09/02 10:03:39;;;;;;;5.57;3.17;;;21.40;99.90;;;;;;5010907;28;20243;-90
2021/09/02 10:06:10;;;;;;;6.43;3.10;;;21.40;99.90;;;;;;5008997;28;20214;-90
2021/09/02 10:08:42;;;;;;;4.57;3.37;;;21.20;99.90;;;;;;5018960;28;20247;-90
2021/09/02 10:11:12;;;;;;;6.10;3.40;;;21.20;99.90;;;;;;5017589;28;20722;-91
2021/09/02 10:13:39;;;;;;;6.40;2.80;;;21.50;99.90;;;;;;5019602;28;20193;-91
2021/09/02 10:16:05;;;;;;;7.50;3.03;;;21.60;99.90;;;;;;5013297;28;20328;-91
2021/09/02 10:18:35;;;;;;;5.57;3.00;;;21.50;99.90;;;;;;5017402;28;20322;-91
2021/09/02 10:21:04;;;;;;;6.67;3.33;;;21.40;99.90;;;;;;5028051;28;20229;-91
2021/09/02 10:23:30;;;;;;;5.20;2.50;;;21.40;99.90;;;;;;5022316;28;20226;-91
2021/09/02 10:25:57;;;;;;;6.43;2.80;;;21.00;99.90;;;;;;5020411;28;20215;-91
2021/09/02 10:28:27;;;;;;;3.90;3.10;;;21.10;99.90;;;;;;5011007;28;20651;-90
2021/09/02 10:31:19;;;;;;;6.93;3.43;;;21.20;99.90;;;;;;5018867;28;20189;-92
2021/09/02 10:33:47;;;;;;;4.90;2.87;;;21.50;99.90;;;;;;5018512;28;20294;-90
2021/09/02 10:36:16;;;;;;;7.23;3.13;;;21.60;99.90;;;;;;5011386;28;20664;-92
2021/09/02 10:38:55;;;;;;;10.10;4.00;;;21.70;99.90;;;;;;5018122;28;20223;-91
2021/09/02 10:41:36;;;;;;;5.50;3.23;;;21.70;99.90;;;;;;5038018;28;20207;-90
2021/09/02 10:44:06;;;;;;;6.53;3.27;;;21.60;99.90;;;;;;5018725;28;20218;-92
2021/09/02 10:46:39;;;;;;;5.83;3.43;;;21.40;99.90;;;;;;5026866;28;20693;-91
2021/09/02 10:49:14;;;;;;;6.57;3.23;;;21.50;99.90;;;;;;5018294;28;20186;-92
2021/09/02 10:51:42;;;;;;;8.43;3.73;;;21.70;99.90;;;;;;5019168;28;20210;-92
2021/09/02 10:54:14;;;;;;;5.80;2.77;;;21.70;99.90;;;;;;5018427;28;20587;-90
2021/09/02 10:57:02;;;;;;;5.80;3.60;;;21.70;99.90;;;;;;5019099;28;20229;-91
2021/09/02 10:59:53;;;;;;;8.20;3.60;;;21.50;99.90;;;;;;5026583;28;20713;-91
2021/09/02 11:02:21;;;;;;;5.93;3.03;;;20.80;99.90;;;;;;5019533;28;20223;-91
2021/09/02 11:04:57;;;;;;;5.53;2.93;;;20.80;99.90;;;;;;5019924;28;20215;-90
2021/09/02 11:07:43;;;;;;;7.23;3.33;;;20.40;99.90;;;;;;5011996;28;20191;-94
2021/09/02 11:10:20;;;;;;;4.37;3.03;;;20.50;99.90;;;;;;5018959;28;20186;-92
2021/09/02 11:12:47;;;;;;;7.50;3.20;;;20.50;99.90;;;;;;5016878;28;20226;-92
2021/09/02 11:15:21;;;;;;;6.43;3.07;;;20.60;99.90;;;;;;5009493;28;20215;-91
2021/09/02 11:17:52;;;;;;;6.90;3.67;;;20.60;99.90;;;;;;5016898;28;20287;-92
2021/09/02 11:20:28;;;;;;;5.43;3.37;;;20.40;99.90;;;;;;5016542;28;20902;-93
2021/09/02 11:23:12;;;;;;;3.23;2.47;;;20.60;99.90;;;;;;5010519;28;20222;-93
2021/09/02 11:25:57;;;;;;;8.57;4.13;;;21.10;99.90;;;;;;5019087;28;20210;-90
2021/09/02 11:28:23;;;;;;;8.20;3.53;;;21.30;99.90;;;;;;5009963;28;20183;-90
2021/09/02 11:30:51;;;;;;;5.10;3.40;;;21.50;99.90;;;;;;5010731;28;20222;-91
2021/09/02 11:33:17;;;;;;;5.63;3.47;;;21.70;99.90;;;;;;5011051;28;20213;-91
2021/09/02 11:35:53;;;;;;;5.37;2.90;;;21.30;99.90;;;;;;5006505;28;20204;-91
2021/09/02 11:38:19;;;;;;;5.60;3.23;;;21.20;99.90;;;;;;5009879;28;20309;-90
2021/09/02 11:40:45;;;;;;;5.53;2.93;;;21.40;99.90;;;;;;5002382;28;20222;-91
2021/09/02 11:43:17;;;;;;;5.33;3.00;;;21.60;99.90;;;;;;5011590;28;20214;-90
2021/09/02 11:45:53;;;;;;;4.90;3.20;;;21.40;99.90;;;;;;5001718;28;20215;-90
2021/09/02 11:48:19;;;;;;;7.40;3.13;;;21.50;99.90;;;;;;5016375;28;20226;-90
2021/09/02 11:50:59;;;;;;;3.57;2.87;;;21.50;99.90;;;;;;5009197;28;20269;-90
2021/09/02 11:53:31;;;;;;;3.87;2.63;;;21.40;99.90;;;;;;5004061;28;20211;-90
2021/09/02 11:56:10;;;;;;;7.27;2.70;;;21.20;99.90;;;;;;5018207;28;20222;-90
2021/09/02 11:58:36;;;;;;;4.70;2.60;;;21.30;99.90;;;;;;5019303;28;20202;-90
2021/09/02 12:01:02;;;;;;;5.13;3.10;;;21.30;99.90;;;;;;5009403;28;20184;-90
2021/09/02 12:03:28;;;;;;;4.47;2.90;;;21.70;99.90;;;;;;5018813;28;20214;-90
2021/09/02 12:05:56;;;;;;;5.33;2.70;;;22.00;99.90;;;;;;5008945;28;20212;-90
2021/09/02 12:08:22;;;;;;;9.47;4.03;;;21.80;99.90;;;;;;5002605;28;20226;-91
2021/09/02 12:10:48;;;;;;;9.13;3.20;;;21.60;99.90;;;;;;4985194;28;20778;-90
2021/09/02 12:13:27;;;;;;;6.10;3.30;;;21.90;99.90;;;;;;5019537;28;20183;-90
2021/09/02 12:16:05;;;;;;;5.07;2.67;;;21.90;99.90;;;;;;5018515;28;20241;-91
2021/09/02 12:18:32;;;;;;;6.87;3.13;;;22.00;99.90;;;;;;5017556;28;20318;-90
2021/09/02 12:21:07;;;;;;;7.10;3.17;;;22.00;99.90;;;;;;5007136;28;20838;-90
2021/09/02 12:24:04;;;;;;;6.63;3.33;;;22.20;99.90;;;;;;5016092;28;20222;-91
2021/09/02 12:26:51;;;;;;;4.70;3.10;;;22.40;99.90;;;;;;5017084;28;20324;-91
2021/09/02 12:29:19;;;;;;;7.67;4.07;;;22.30;99.90;;;;;;5017556;28;20640;-91
2021/09/02 12:31:47;;;;;;;7.73;2.90;;;22.30;99.90;;;;;;5016506;28;20218;-91
2021/09/02 12:34:29;;;;;;;7.13;3.53;;;22.60;99.90;;;;;;5016658;28;20187;-90
2021/09/02 12:37:10;;;;;;;6.23;3.30;;;22.60;99.90;;;;;;5017280;28;20226;-91
2021/09/02 12:39:46;;;;;;;5.60;3.33;;;22.60;99.90;;;;;;5015688;28;20223;-90
2021/09/02 12:42:30;;;;;;;5.37;3.40;;;22.60;99.90;;;;;;5009879;28;20224;-90
2021/09/02 12:45:03;;;;;;;6.27;3.10;;;22.80;99.90;;;;;;5016376;28;20653;-89
2021/09/02 12:47:29;;;;;;;7.73;2.77;;;22.90;99.90;;;;;;5016612;28;20219;-90
2021/09/02 12:49:55;;;;;;;6.50;4.40;;;22.90;99.90;;;;;;5009653;28;20222;-90
2021/09/02 12:52:30;;;;;;;4.57;3.10;;;22.80;99.90;;;;;;5009913;28;20187;-90